Time;durP1;ratioP1;P1;durP2;ratioP2;P2;SDS_P1;SDS_P2;PMS_P1;PMS_P2;Temp;Humidity;BMP_temperature;BMP_pressure;BME280_temperature;BME280_humidity;BME280_pressure;Samples;Min_cycle;Max_cycle;Signal;HPM_P1;HPM_P2
2023/11/20 02:03:39;;;;;;;13.80;13.00;;;8.80;99.90;;;;;;4831430;29;20815;-80
2023/11/20 03:53:22;;;;;;;12.30;11.50;;;9.30;99.90;;;;;;1392682;27;20216;-80
2023/11/20 03:59:35;;;;;;;12.90;12.10;;;9.20;99.90;;;;;;4813728;29;20291;-82
2023/11/20 04:02:02;;;;;;;14.67;13.77;;;9.20;99.90;;;;;;4879715;29;20222;-83
2023/11/20 04:04:29;;;;;;;13.60;12.80;;;9.20;99.90;;;;;;4887264;29;20209;-82
2023/11/20 04:06:56;;;;;;;13.50;12.60;;;9.20;99.90;;;;;;4875163;29;20235;-81
2023/11/20 04:09:25;;;;;;;13.77;13.03;;;9.20;99.90;;;;;;4880827;29;20201;-82
2023/11/20 04:11:52;;;;;;;14.87;13.97;;;9.30;99.90;;;;;;4869539;29;20190;-82
2023/11/20 04:14:19;;;;;;;13.67;12.80;;;9.30;99.90;;;;;;4880339;29;20671;-81
2023/11/20 04:16:46;;;;;;;13.67;12.87;;;9.30;99.90;;;;;;4877291;29;20260;-83
2023/11/20 04:19:13;;;;;;;14.00;13.10;;;9.40;99.90;;;;;;4896345;29;20236;-81
2023/11/20 04:21:41;;;;;;;14.07;13.07;;;9.40;99.90;;;;;;4869898;29;20227;-82
2023/11/20 04:24:09;;;;;;;14.20;13.40;;;9.40;99.90;;;;;;4883835;29;20297;-82
2023/11/20 04:26:37;;;;;;;14.20;13.40;;;9.40;99.90;;;;;;4879022;29;20236;-82
2023/11/20 04:29:04;;;;;;;14.10;13.30;;;9.40;99.90;;;;;;4874567;29;20201;-83
2023/11/20 04:31:31;;;;;;;14.90;14.00;;;9.40;99.90;;;;;;4872362;29;20201;-82
2023/11/20 04:33:58;;;;;;;15.30;14.40;;;9.40;99.90;;;;;;4869534;29;20214;-82
2023/11/20 04:36:25;;;;;;;15.00;14.10;;;9.40;99.90;;;;;;4879865;29;20718;-82
2023/11/20 04:38:52;;;;;;;14.50;13.60;;;9.40;99.90;;;;;;4888666;29;20213;-82
2023/11/20 04:41:22;;;;;;;15.57;14.47;;;9.40;99.90;;;;;;4871714;29;20257;-83
2023/11/20 04:43:50;;;;;;;14.60;13.70;;;9.40;99.90;;;;;;4875593;29;20578;-82
2023/11/20 04:46:17;;;;;;;14.73;13.90;;;9.40;99.90;;;;;;4870923;29;20282;-82
2023/11/20 04:48:44;;;;;;;12.23;11.30;;;9.40;99.90;;;;;;4876757;29;20205;-82
2023/11/20 04:51:18;;;;;;;5.20;4.70;;;9.50;99.90;;;;;;4876223;29;20206;-82
2023/11/20 04:53:45;;;;;;;7.83;6.60;;;9.40;99.90;;;;;;4888076;29;20213;-82
2023/11/20 04:56:12;;;;;;;9.60;8.80;;;9.40;99.90;;;;;;4874151;29;20260;-82
2023/11/20 04:58:39;;;;;;;13.73;12.93;;;9.40;99.90;;;;;;4874410;29;20198;-82
2023/11/20 05:01:07;;;;;;;9.57;6.67;;;9.40;99.90;;;;;;4890776;29;20197;-82
2023/11/20 05:03:37;;;;;;;6.00;4.97;;;9.40;99.90;;;;;;4878662;29;20227;-82
2023/11/20 05:06:45;;;;;;;5.13;4.63;;;9.40;99.90;;;;;;4872821;29;20212;-82
2023/11/20 05:09:36;;;;;;;7.20;6.60;;;9.40;99.90;;;;;;4824613;29;20534;-81
2023/11/20 05:23:04;;;;;;;5.03;4.50;;;9.50;99.90;;;;;;4720183;29;20205;-82
2023/11/20 05:25:30;;;;;;;4.50;4.20;;;9.50;99.90;;;;;;4808293;29;20233;-82
2023/11/20 05:27:57;;;;;;;11.17;10.37;;;9.60;99.90;;;;;;4875961;29;20232;-81
2023/11/20 05:30:24;;;;;;;4.47;4.07;;;9.60;99.90;;;;;;4874166;29;20210;-81
2023/11/20 05:32:51;;;;;;;4.33;3.90;;;9.60;99.90;;;;;;4878641;29;20548;-81
2023/11/20 05:35:19;;;;;;;5.13;4.60;;;9.60;99.90;;;;;;4872194;29;20219;-81
2023/11/20 05:37:46;;;;;;;4.93;4.40;;;9.60;99.90;;;;;;4884861;29;20309;-81
2023/11/20 05:40:17;;;;;;;4.67;4.03;;;9.60;99.90;;;;;;4872972;29;20213;-82
2023/11/20 05:42:44;;;;;;;8.97;4.40;;;9.70;99.90;;;;;;4869826;29;20209;-82
2023/11/20 05:45:11;;;;;;;6.97;4.50;;;9.60;99.90;;;;;;4863357;29;20271;-80
2023/11/20 05:47:38;;;;;;;4.97;4.40;;;9.60;99.90;;;;;;4884602;29;20652;-79
2023/11/20 05:50:06;;;;;;;7.47;4.90;;;9.70;99.90;;;;;;4868879;29;20775;-79
2023/11/20 05:52:33;;;;;;;8.17;7.57;;;9.60;99.90;;;;;;4881952;29;20963;-79
2023/11/20 05:55:09;;;;;;;5.93;5.00;;;9.60;99.90;;;;;;4871256;29;20202;-80
2023/11/20 05:57:38;;;;;;;11.10;10.33;;;9.60;99.90;;;;;;4867159;29;20228;-76
2023/11/20 06:00:10;;;;;;;5.93;5.43;;;9.60;99.90;;;;;;4862026;29;20292;-83
2023/11/20 06:02:48;;;;;;;9.13;8.50;;;9.50;99.90;;;;;;4876688;29;20202;-82
2023/11/20 06:05:15;;;;;;;14.67;13.77;;;9.50;99.90;;;;;;4893316;29;20205;-78
2023/11/20 06:07:42;;;;;;;6.80;5.83;;;9.40;99.90;;;;;;4861546;29;20222;-78
2023/11/20 06:10:10;;;;;;;15.37;14.37;;;9.40;99.90;;;;;;4864085;29;20209;-78
2023/11/20 06:12:39;;;;;;;14.97;13.87;;;9.30;99.90;;;;;;4878179;29;20209;-78
2023/11/20 06:15:07;;;;;;;15.17;13.83;;;9.30;99.90;;;;;;4862751;29;20201;-77
2023/11/20 06:17:36;;;;;;;14.40;13.40;;;9.20;99.90;;;;;;4861769;29;20234;-79
2023/11/20 06:20:04;;;;;;;14.70;13.53;;;9.20;99.90;;;;;;4863832;29;20616;-78
2023/11/20 06:22:31;;;;;;;14.30;13.40;;;9.20;99.90;;;;;;4863485;29;20216;-78
2023/11/20 06:24:58;;;;;;;13.93;13.03;;;9.20;99.90;;;;;;4865269;29;20198;-78
2023/11/20 06:27:25;;;;;;;13.33;12.47;;;9.20;99.90;;;;;;4864318;29;20596;-78
2023/11/20 06:29:53;;;;;;;13.33;12.53;;;9.20;99.90;;;;;;4861646;29;20209;-79
2023/11/20 06:32:20;;;;;;;13.13;12.37;;;9.20;99.90;;;;;;4884071;29;20209;-79
2023/11/20 06:34:47;;;;;;;14.37;13.13;;;9.20;99.90;;;;;;4883800;29;20220;-79
2023/11/20 06:37:13;;;;;;;14.60;13.30;;;9.20;99.90;;;;;;4881161;29;20741;-79
2023/11/20 06:39:40;;;;;;;13.93;12.83;;;9.20;99.90;;;;;;4867124;29;20217;-79
2023/11/20 06:42:08;;;;;;;14.10;13.00;;;9.20;99.90;;;;;;4867685;29;20202;-79
2023/11/20 06:44:37;;;;;;;14.10;13.10;;;9.20;99.90;;;;;;4867465;29;20198;-79
2023/11/20 06:47:07;;;;;;;13.43;12.53;;;9.20;99.90;;;;;;4882932;29;20218;-79
2023/11/20 06:49:34;;;;;;;14.07;12.73;;;9.20;99.90;;;;;;4884787;29;20580;-79
2023/11/20 06:52:01;;;;;;;13.40;12.40;;;9.20;99.90;;;;;;4868288;29;20202;-78
2023/11/20 06:54:28;;;;;;;13.40;12.60;;;9.20;99.90;;;;;;4870253;29;20234;-78
2023/11/20 06:56:54;;;;;;;13.53;12.63;;;9.20;99.90;;;;;;4873888;29;20771;-77
2023/11/20 06:59:21;;;;;;;14.03;13.00;;;9.30;99.90;;;;;;4883021;29;20206;-78
2023/11/20 07:01:48;;;;;;;14.40;13.30;;;9.30;99.90;;;;;;4883467;29;20202;-78
2023/11/20 07:04:18;;;;;;;13.50;12.60;;;9.30;99.90;;;;;;4882705;29;20221;-79
2023/11/20 07:06:44;;;;;;;14.70;13.30;;;9.40;99.90;;;;;;4889350;29;20265;-78
2023/11/20 07:09:14;;;;;;;14.23;13.13;;;9.40;99.90;;;;;;4867646;29;20218;-78
2023/11/20 07:11:41;;;;;;;13.90;13.00;;;9.40;99.90;;;;;;4876497;29;20230;-79
2023/11/20 07:14:09;;;;;;;13.43;12.57;;;9.40;99.90;;;;;;4872267;29;20202;-79
2023/11/20 07:16:36;;;;;;;13.67;12.80;;;9.50;99.90;;;;;;4881949;29;20229;-79
2023/11/20 07:19:03;;;;;;;13.10;12.30;;;9.50;99.90;;;;;;4881993;29;20195;-79
2023/11/20 07:21:31;;;;;;;13.57;12.37;;;9.50;99.90;;;;;;4882113;29;20304;-78
2023/11/20 07:23:57;;;;;;;13.80;12.90;;;9.50;99.90;;;;;;4882525;29;20209;-78
2023/11/20 07:26:25;;;;;;;7.53;6.80;;;9.60;99.90;;;;;;4867984;29;20242;-79
2023/11/20 07:28:52;;;;;;;6.87;6.37;;;9.60;99.90;;;;;;4872873;29;20221;-78
2023/11/20 07:31:28;;;;;;;10.10;9.27;;;9.70;99.90;;;;;;4868654;29;20202;-81
2023/11/20 07:33:55;;;;;;;6.80;3.97;;;9.80;99.90;;;;;;4865692;29;20202;-82
2023/11/20 07:36:24;;;;;;;6.57;5.87;;;9.80;99.90;;;;;;4882670;29;20302;-80
2023/11/20 07:38:52;;;;;;;9.60;8.83;;;9.90;99.90;;;;;;4879697;29;20205;-80
2023/11/20 07:41:18;;;;;;;6.10;5.33;;;9.90;99.90;;;;;;4879319;29;20280;-80
2023/11/20 07:43:47;;;;;;;9.93;9.13;;;9.90;99.90;;;;;;4863949;29;20939;-81
2023/11/20 07:46:14;;;;;;;7.20;4.33;;;9.90;99.90;;;;;;4879746;29;20722;-81
2023/11/20 07:48:41;;;;;;;5.23;3.80;;;10.00;99.90;;;;;;4876137;29;20237;-81
2023/11/20 07:51:07;;;;;;;5.23;4.00;;;10.00;99.90;;;;;;4899010;29;20642;-79
2023/11/20 07:53:34;;;;;;;7.10;4.40;;;10.10;99.90;;;;;;4866855;29;20598;-82
2023/11/20 07:56:06;;;;;;;6.90;4.60;;;10.20;99.90;;;;;;4869815;29;20209;-80
2023/11/20 07:58:36;;;;;;;4.43;3.43;;;10.20;99.90;;;;;;4871460;29;20285;-80
2023/11/20 08:01:04;;;;;;;9.70;8.53;;;10.30;99.90;;;;;;4871713;29;20231;-82
2023/11/20 08:03:38;;;;;;;4.17;3.40;;;10.30;99.90;;;;;;4871718;29;20205;-79
2023/11/20 08:06:05;;;;;;;3.90;3.50;;;10.40;99.90;;;;;;4888977;29;20209;-79
2023/11/20 08:08:32;;;;;;;5.43;4.93;;;10.40;99.90;;;;;;4874595;29;20218;-80
2023/11/20 08:11:06;;;;;;;15.47;14.43;;;10.50;99.90;;;;;;4872493;29;20750;-79
2023/11/20 08:13:35;;;;;;;12.57;11.20;;;10.60;99.90;;;;;;4888634;29;20205;-78
2023/11/20 08:16:02;;;;;;;8.87;8.07;;;10.60;99.90;;;;;;4878162;29;20248;-78
2023/11/20 08:18:29;;;;;;;7.83;7.13;;;10.60;99.90;;;;;;4886453;29;20273;-79
2023/11/20 08:20:56;;;;;;;7.10;6.33;;;10.70;99.90;;;;;;4879159;29;20230;-80
2023/11/20 08:23:26;;;;;;;8.40;7.57;;;10.80;99.90;;;;;;4872677;29;20262;-78
2023/11/20 08:25:52;;;;;;;7.93;7.20;;;10.80;99.90;;;;;;4877131;29;20261;-81
2023/11/20 08:28:20;;;;;;;9.13;7.47;;;10.90;99.90;;;;;;4874393;29;20230;-77
2023/11/20 08:30:47;;;;;;;17.40;8.60;;;10.90;99.90;;;;;;4868895;29;20199;-76
2023/11/20 08:33:14;;;;;;;11.53;10.43;;;11.10;99.90;;;;;;4875002;29;20209;-77
2023/11/20 08:35:41;;;;;;;13.97;8.50;;;11.00;99.90;;;;;;4885217;29;20202;-76
2023/11/20 08:38:09;;;;;;;8.63;7.77;;;11.00;99.90;;;;;;4869837;29;20246;-77
2023/11/20 08:40:36;;;;;;;11.67;10.60;;;11.00;99.90;;;;;;4861281;29;20204;-77
2023/11/20 08:43:03;;;;;;;10.30;9.40;;;11.00;99.90;;;;;;4871311;29;20199;-76
2023/11/20 08:45:32;;;;;;;6.00;4.37;;;11.00;99.90;;;;;;4870573;29;20571;-77
2023/11/20 08:48:50;;;;;;;9.73;8.97;;;11.10;99.90;;;;;;4867739;29;20258;-85
2023/11/20 08:51:37;;;;;;;9.80;9.10;;;11.10;99.90;;;;;;4876061;29;20254;-82
2023/11/20 08:54:05;;;;;;;12.00;9.10;;;11.10;99.90;;;;;;4878948;29;20220;-82
2023/11/20 08:56:32;;;;;;;9.83;8.93;;;11.10;99.90;;;;;;4875454;29;20632;-82
2023/11/20 08:58:59;;;;;;;10.00;9.20;;;11.20;99.90;;;;;;4879712;29;20207;-83
2023/11/20 09:01:33;;;;;;;10.57;9.57;;;11.20;99.90;;;;;;4881618;29;20219;-83
2023/11/20 09:04:00;;;;;;;11.17;10.27;;;11.10;99.90;;;;;;4875755;29;20610;-81
2023/11/20 09:06:27;;;;;;;11.87;10.67;;;11.10;99.90;;;;;;4878734;29;20274;-82
2023/11/20 09:08:54;;;;;;;8.27;3.73;;;11.10;99.90;;;;;;4867747;29;20653;-82
2023/11/20 09:11:21;;;;;;;7.90;3.80;;;11.10;99.90;;;;;;4880536;29;20741;-82
2023/11/20 09:13:48;;;;;;;5.13;3.70;;;11.20;99.90;;;;;;4890776;29;20218;-82
2023/11/20 09:16:15;;;;;;;7.13;4.10;;;11.20;99.90;;;;;;4892592;29;20245;-81
2023/11/20 09:18:43;;;;;;;4.03;3.40;;;11.20;99.90;;;;;;4881974;29;20510;-82
2023/11/20 09:21:10;;;;;;;7.67;3.67;;;11.30;99.90;;;;;;4875252;29;20216;-82
2023/11/20 09:23:37;;;;;;;6.20;3.43;;;11.30;99.90;;;;;;4898752;29;20210;-82
2023/11/20 09:26:08;;;;;;;5.23;3.40;;;11.30;99.90;;;;;;4881096;29;20237;-82
2023/11/20 09:28:35;;;;;;;5.90;3.20;;;11.40;99.90;;;;;;4898418;29;20239;-80
2023/11/20 09:31:02;;;;;;;5.47;3.47;;;11.50;99.90;;;;;;4893519;29;20261;-81
2023/11/20 09:33:29;;;;;;;8.93;3.70;;;11.50;99.90;;;;;;4882711;29;20233;-82
2023/11/20 09:35:58;;;;;;;5.73;3.80;;;11.60;99.90;;;;;;4882336;29;20211;-80
2023/11/20 09:38:24;;;;;;;6.47;3.63;;;11.60;99.90;;;;;;4889749;29;20219;-82
2023/11/20 09:40:52;;;;;;;4.90;3.97;;;11.70;99.90;;;;;;4875597;29;20216;-81
2023/11/20 09:43:22;;;;;;;7.93;3.70;;;11.70;99.90;;;;;;4897760;29;20212;-81
2023/11/20 09:45:55;;;;;;;4.17;3.50;;;11.70;99.90;;;;;;4882946;29;20232;-82
2023/11/20 09:48:23;;;;;;;6.70;3.17;;;11.70;99.90;;;;;;4874016;29;20731;-81
2023/11/20 09:50:51;;;;;;;6.83;3.77;;;11.70;99.90;;;;;;4890188;29;20208;-82
2023/11/20 09:53:19;;;;;;;5.97;5.00;;;11.80;99.90;;;;;;4890991;29;20261;-80
2023/11/20 09:55:47;;;;;;;6.73;4.23;;;12.00;99.90;;;;;;4895715;29;20212;-82
2023/11/20 09:58:13;;;;;;;4.93;3.93;;;12.20;99.90;;;;;;4895232;29;20228;-81
2023/11/20 10:00:40;;;;;;;6.30;3.37;;;12.30;99.90;;;;;;4881846;29;20246;-82
2023/11/20 10:03:08;;;;;;;5.03;3.00;;;12.40;99.90;;;;;;4879042;29;20208;-81
2023/11/20 10:05:41;;;;;;;5.30;3.70;;;12.40;99.90;;;;;;4893687;29;20213;-81
2023/11/20 10:08:18;;;;;;;7.03;4.43;;;12.60;99.90;;;;;;4874439;29;20222;-80
2023/11/20 10:10:51;;;;;;;6.28;5.68;;;12.70;99.90;;;;;;4873169;29;20860;-82
2023/11/20 10:13:19;;;;;;;7.60;4.32;;;12.70;99.90;;;;;;4879712;29;20435;-79
2023/11/20 10:15:47;;;;;;;5.05;3.53;;;12.80;99.90;;;;;;4863230;29;20526;-79
2023/11/20 10:18:15;;;;;;;10.90;10.10;;;12.80;99.90;;;;;;4872902;29;20623;-79
2023/11/20 10:20:47;;;;;;;11.43;10.43;;;12.80;99.90;;;;;;4891565;29;20237;-79
2023/11/20 10:23:14;;;;;;;12.47;11.20;;;12.80;99.90;;;;;;4879986;29;20205;-79
2023/11/20 10:25:42;;;;;;;12.50;11.40;;;12.70;99.90;;;;;;4876920;29;20222;-79
2023/11/20 10:28:13;;;;;;;12.23;11.20;;;12.60;99.90;;;;;;4879967;29;20222;-79
2023/11/20 10:30:41;;;;;;;11.47;10.67;;;12.50;99.90;;;;;;4890048;29;20599;-79
2023/11/20 10:33:16;;;;;;;12.03;10.90;;;12.40;99.90;;;;;;4877858;29;20194;-79
2023/11/20 10:35:44;;;;;;;11.80;10.87;;;12.50;99.90;;;;;;4866265;29;20651;-79
2023/11/20 10:38:11;;;;;;;11.53;10.47;;;12.50;99.90;;;;;;4868346;29;20671;-77
2023/11/20 10:40:40;;;;;;;11.60;10.53;;;12.50;99.90;;;;;;4870925;29;20285;-78
2023/11/20 10:43:07;;;;;;;11.30;10.40;;;12.40;99.90;;;;;;4886279;29;20213;-79
2023/11/20 10:45:35;;;;;;;11.03;10.10;;;12.30;99.90;;;;;;4888118;29;20270;-78
2023/11/20 10:48:06;;;;;;;11.73;10.90;;;12.20;99.90;;;;;;4872541;29;20217;-78
2023/11/20 10:50:35;;;;;;;11.80;10.67;;;12.20;99.90;;;;;;4874473;29;20228;-78
2023/11/20 10:53:06;;;;;;;11.83;10.53;;;12.20;99.90;;;;;;4885168;29;20230;-78
2023/11/20 10:55:42;;;;;;;11.83;10.70;;;12.20;99.90;;;;;;4877126;29;20246;-79
2023/11/20 10:58:11;;;;;;;12.47;11.03;;;12.20;99.90;;;;;;4877417;29;20729;-78
2023/11/20 11:00:40;;;;;;;12.03;11.03;;;12.10;99.90;;;;;;4865705;29;20238;-78
2023/11/20 11:03:10;;;;;;;11.83;10.80;;;12.00;99.90;;;;;;4877381;29;20204;-78
2023/11/20 11:05:39;;;;;;;11.57;10.60;;;11.90;99.90;;;;;;4865703;29;20220;-79
2023/11/20 11:08:11;;;;;;;11.33;10.43;;;11.90;99.90;;;;;;4869070;29;20231;-78
2023/11/20 11:10:40;;;;;;;11.87;10.97;;;11.90;99.90;;;;;;4883702;29;20228;-78
2023/11/20 11:13:08;;;;;;;11.80;11.10;;;11.80;99.90;;;;;;4886748;29;20210;-78
2023/11/20 11:15:36;;;;;;;11.37;10.37;;;11.80;99.90;;;;;;4874988;29;20206;-79
2023/11/20 11:18:08;;;;;;;11.97;11.00;;;11.90;99.90;;;;;;4868350;29;20539;-79
2023/11/20 11:20:43;;;;;;;10.90;10.10;;;12.00;99.90;;;;;;4886871;29;20492;-79
2023/11/20 11:23:11;;;;;;;10.60;9.90;;;12.10;99.90;;;;;;4891130;29;20232;-80
2023/11/20 11:25:44;;;;;;;11.40;10.60;;;12.20;99.90;;;;;;4888482;29;20265;-79
2023/11/20 11:28:14;;;;;;;11.50;10.53;;;12.30;99.90;;;;;;4871589;29;20630;-78
2023/11/20 11:30:44;;;;;;;11.00;10.30;;;12.40;99.90;;;;;;4880348;29;20212;-78
2023/11/20 11:33:46;;;;;;;11.60;10.40;;;12.50;99.90;;;;;;4865703;29;20232;-78
2023/11/20 11:36:24;;;;;;;11.10;10.20;;;12.50;99.90;;;;;;4879729;29;20213;-78
2023/11/20 11:39:14;;;;;;;10.87;9.97;;;12.60;99.90;;;;;;4882462;29;20573;-78
2023/11/20 11:41:47;;;;;;;11.23;10.33;;;12.60;99.90;;;;;;4878478;29;20237;-79
2023/11/20 11:44:23;;;;;;;10.87;10.07;;;12.60;99.90;;;;;;4885676;29;20209;-79
2023/11/20 11:46:51;;;;;;;9.50;8.80;;;12.70;99.90;;;;;;4877532;29;20241;-82
2023/11/20 11:49:23;;;;;;;7.50;6.00;;;12.70;99.90;;;;;;4873527;29;20234;-79
2023/11/20 11:51:50;;;;;;;10.10;9.30;;;12.60;99.90;;;;;;4867895;29;20620;-79
2023/11/20 11:54:17;;;;;;;6.70;6.10;;;12.60;99.90;;;;;;4877857;29;20276;-79
2023/11/20 11:57:02;;;;;;;6.67;6.07;;;12.50;99.90;;;;;;4876815;29;20232;-78
2023/11/20 11:59:36;;;;;;;11.47;10.53;;;12.40;99.90;;;;;;4889560;29;20303;-78
2023/11/20 12:02:05;;;;;;;11.83;11.00;;;12.20;99.90;;;;;;4865829;29;20213;-80
2023/11/20 12:05:06;;;;;;;11.60;10.70;;;12.00;99.90;;;;;;4874116;29;20205;-78
2023/11/20 12:07:54;;;;;;;11.70;10.80;;;11.80;99.90;;;;;;4875851;29;20262;-78
2023/11/20 12:10:39;;;;;;;11.07;10.38;;;11.70;99.90;;;;;;4885393;29;20462;-77
2023/11/20 12:13:08;;;;;;;11.00;10.20;;;11.60;99.90;;;;;;4884334;29;20219;-79
2023/11/20 12:15:37;;;;;;;11.53;10.50;;;11.50;99.90;;;;;;4870719;29;20231;-78
2023/11/20 12:18:08;;;;;;;11.40;10.60;;;11.40;99.90;;;;;;4880689;29;20254;-78
2023/11/20 12:20:37;;;;;;;11.13;10.43;;;11.40;99.90;;;;;;4876058;29;20204;-77
2023/11/20 12:23:07;;;;;;;11.57;10.67;;;11.50;99.90;;;;;;4875102;29;20879;-78
2023/11/20 12:25:38;;;;;;;11.60;10.80;;;11.50;99.90;;;;;;4867222;29;20197;-78
2023/11/20 12:28:07;;;;;;;11.50;10.70;;;11.50;99.90;;;;;;4879305;29;20228;-78
2023/11/20 12:30:34;;;;;;;11.50;10.60;;;11.40;99.90;;;;;;4875247;29;20284;-78
2023/11/20 12:33:02;;;;;;;11.90;11.13;;;11.50;99.90;;;;;;4870443;29;20777;-78
2023/11/20 12:35:31;;;;;;;10.73;10.00;;;11.60;99.90;;;;;;4885868;29;20222;-77
2023/11/20 12:38:00;;;;;;;11.60;10.80;;;11.70;99.90;;;;;;4883244;29;20263;-77
2023/11/20 12:40:27;;;;;;;11.37;10.67;;;11.70;99.90;;;;;;4882198;29;20215;-77
2023/11/20 12:42:54;;;;;;;11.33;10.33;;;11.70;99.90;;;;;;4876828;29;20205;-78
2023/11/20 12:45:20;;;;;;;11.17;10.17;;;11.80;99.90;;;;;;4881694;29;20265;-80
2023/11/20 12:47:47;;;;;;;11.43;10.73;;;11.90;99.90;;;;;;4877611;29;20239;-77
2023/11/20 12:50:14;;;;;;;11.57;10.57;;;11.90;99.90;;;;;;4871271;29;20230;-77
2023/11/20 12:52:42;;;;;;;11.20;10.37;;;11.90;99.90;;;;;;4891447;29;20645;-78
2023/11/20 12:55:11;;;;;;;11.47;10.50;;;12.00;99.90;;;;;;4878630;29;20214;-77
2023/11/20 12:57:39;;;;;;;11.10;10.23;;;12.00;99.90;;;;;;4894434;29;20238;-77
2023/11/20 13:00:10;;;;;;;11.45;10.75;;;12.10;99.90;;;;;;4874865;29;21001;-77
2023/11/20 13:02:38;;;;;;;4.95;4.22;;;12.00;99.90;;;;;;4872980;29;20530;-78
2023/11/20 13:05:12;;;;;;;8.37;7.73;;;11.90;99.90;;;;;;4867239;29;20210;-77
2023/11/20 13:07:39;;;;;;;11.20;10.40;;;11.80;99.90;;;;;;4869327;29;20262;-77
2023/11/20 13:10:08;;;;;;;11.33;10.50;;;11.70;99.90;;;;;;4878906;29;20225;-77
2023/11/20 13:12:45;;;;;;;11.17;10.43;;;11.60;99.90;;;;;;4871389;29;20684;-77
2023/11/20 13:15:27;;;;;;;11.60;10.73;;;11.50;99.90;;;;;;5114104;27;20559;-78
2023/11/20 13:17:54;;;;;;;11.30;10.50;;;11.50;99.90;;;;;;5090693;28;20777;-78
2023/11/20 13:20:42;;;;;;;11.20;10.30;;;11.40;99.90;;;;;;5080044;28;20197;-78
2023/11/20 13:23:19;;;;;;;8.27;5.47;;;11.40;99.90;;;;;;5070563;28;20257;-80
2023/11/20 13:25:47;;;;;;;11.00;10.20;;;11.40;99.90;;;;;;5068872;28;20205;-80
2023/11/20 13:28:16;;;;;;;6.80;6.23;;;11.40;99.90;;;;;;5078244;28;20376;-80
2023/11/20 13:40:59;;;;;;;11.10;10.40;;;11.30;99.90;;;;;;5010216;28;20241;-80
2023/11/20 13:43:28;;;;;;;10.80;10.20;;;11.30;99.90;;;;;;4993684;28;20200;-80
2023/11/20 13:45:56;;;;;;;10.80;10.10;;;11.30;99.90;;;;;;4993484;28;20213;-80
2023/11/20 14:03:13;;;;;;;10.70;9.90;;;10.80;99.90;;;;;;4913440;29;20201;-80
2023/11/20 14:05:42;;;;;;;10.03;9.43;;;10.70;99.90;;;;;;4933849;29;20822;-80
2023/11/20 14:08:11;;;;;;;10.70;10.00;;;10.70;99.90;;;;;;4960654;28;20231;-77
2023/11/20 14:10:41;;;;;;;10.67;9.80;;;10.70;99.90;;;;;;4990807;28;20241;-80
2023/11/20 14:13:09;;;;;;;10.60;9.90;;;10.70;99.90;;;;;;4992314;28;20209;-80
2023/11/20 14:15:37;;;;;;;10.00;9.40;;;10.80;99.90;;;;;;4991491;28;20566;-80
2023/11/20 14:18:05;;;;;;;10.33;9.70;;;10.80;99.90;;;;;;4973688;28;20277;-80
2023/11/20 14:20:33;;;;;;;10.20;9.60;;;10.80;99.90;;;;;;4973944;28;20694;-80
2023/11/20 14:23:00;;;;;;;10.47;9.77;;;10.80;99.90;;;;;;4990963;28;20199;-80
2023/11/20 14:25:29;;;;;;;9.93;9.30;;;10.80;99.90;;;;;;4984299;28;20201;-80
2023/11/20 14:27:58;;;;;;;10.20;9.60;;;10.90;99.90;;;;;;4968249;28;20280;-80
2023/11/20 14:30:25;;;;;;;10.53;9.87;;;10.90;99.90;;;;;;4976410;28;20230;-80
2023/11/20 14:32:56;;;;;;;10.27;9.67;;;10.90;99.90;;;;;;4976944;28;20195;-80
2023/11/20 14:35:24;;;;;;;10.33;9.67;;;10.90;99.90;;;;;;4951007;28;20336;-80
2023/11/20 14:37:53;;;;;;;9.93;9.37;;;11.00;99.90;;;;;;4964260;28;20259;-81
2023/11/20 14:40:20;;;;;;;10.60;9.90;;;11.00;99.90;;;;;;4976440;28;20240;-81
2023/11/20 14:42:53;;;;;;;10.57;9.97;;;11.00;99.90;;;;;;4953704;28;20664;-82
2023/11/20 14:45:22;;;;;;;10.60;9.90;;;11.00;99.90;;;;;;4976276;28;20255;-80
2023/11/20 14:47:51;;;;;;;11.30;10.50;;;11.00;99.90;;;;;;4976104;28;20322;-80
2023/11/20 14:50:19;;;;;;;11.43;10.50;;;11.00;99.90;;;;;;4972067;28;20211;-82
2023/11/20 14:53:23;;;;;;;11.10;10.40;;;11.00;99.90;;;;;;4963610;28;20207;-81
2023/11/20 14:55:51;;;;;;;11.30;10.40;;;11.00;99.90;;;;;;4963008;28;20207;-81
2023/11/20 14:58:18;;;;;;;12.00;11.07;;;11.00;99.90;;;;;;4982162;28;20285;-81
2023/11/20 15:00:47;;;;;;;11.20;10.50;;;11.00;99.90;;;;;;4953284;28;20209;-80
2023/11/20 15:03:14;;;;;;;11.10;10.40;;;11.00;99.90;;;;;;4968337;28;20597;-81
2023/11/20 15:05:41;;;;;;;11.87;10.97;;;11.00;99.90;;;;;;4963439;28;20254;-81
2023/11/20 15:08:11;;;;;;;10.50;9.80;;;10.80;99.90;;;;;;4961265;28;20228;-80
2023/11/20 15:10:39;;;;;;;11.07;10.27;;;10.70;99.90;;;;;;4977577;28;20195;-80
2023/11/20 15:13:06;;;;;;;10.57;9.93;;;10.50;99.90;;;;;;4957654;28;20296;-80
2023/11/20 15:15:33;;;;;;;11.03;10.37;;;10.40;99.90;;;;;;4961039;28;20223;-80
2023/11/20 15:18:00;;;;;;;11.33;10.73;;;10.30;99.90;;;;;;4977186;28;20639;-80
2023/11/20 15:20:27;;;;;;;11.00;10.30;;;10.20;99.90;;;;;;4974842;28;20209;-80
2023/11/20 15:22:54;;;;;;;11.30;10.60;;;10.20;99.90;;;;;;4974236;28;20263;-79
2023/11/20 15:25:21;;;;;;;11.40;10.60;;;10.20;99.90;;;;;;4973841;28;20203;-80
2023/11/20 15:27:50;;;;;;;11.13;10.43;;;10.10;99.90;;;;;;4978373;28;20235;-80
2023/11/20 15:30:16;;;;;;;11.13;10.43;;;10.10;99.90;;;;;;4976723;28;20512;-80
2023/11/20 15:32:43;;;;;;;11.20;10.50;;;10.10;99.90;;;;;;4981944;28;20230;-81
2023/11/20 15:35:10;;;;;;;10.87;10.27;;;10.10;99.90;;;;;;4960378;28;20595;-82
2023/11/20 15:37:37;;;;;;;11.40;10.33;;;10.00;99.90;;;;;;4975240;28;20250;-80
2023/11/20 15:40:08;;;;;;;11.40;10.70;;;10.00;99.90;;;;;;4976338;28;20218;-76
2023/11/20 15:42:34;;;;;;;11.40;10.50;;;10.00;99.90;;;;;;4966893;28;20234;-77
2023/11/20 15:45:04;;;;;;;11.03;10.33;;;9.90;99.90;;;;;;4952454;28;20627;-77
2023/11/20 15:47:31;;;;;;;11.00;10.40;;;9.90;99.90;;;;;;4970086;28;20263;-77
2023/11/20 15:49:59;;;;;;;10.57;9.97;;;9.90;99.90;;;;;;4956526;28;20192;-78
2023/11/20 15:52:26;;;;;;;11.30;10.60;;;9.90;99.90;;;;;;4968677;28;20268;-77
2023/11/20 15:54:52;;;;;;;11.03;10.40;;;9.80;99.90;;;;;;4962712;28;20240;-78
2023/11/20 15:57:19;;;;;;;11.33;10.63;;;9.80;99.90;;;;;;4978564;28;20225;-83
2023/11/20 15:59:46;;;;;;;12.00;11.30;;;9.70;99.90;;;;;;4977379;28;20194;-79
2023/11/20 16:02:14;;;;;;;11.30;10.40;;;9.70;99.90;;;;;;4978502;28;20276;-78
2023/11/20 16:04:41;;;;;;;11.63;10.63;;;9.70;99.90;;;;;;4976564;28;20187;-79
2023/11/20 16:07:08;;;;;;;11.00;10.30;;;9.70;99.90;;;;;;4976496;28;20313;-78
2023/11/20 16:09:38;;;;;;;11.83;10.90;;;9.70;99.90;;;;;;4976292;28;20773;-79
2023/11/20 16:12:05;;;;;;;12.20;11.40;;;9.70;99.90;;;;;;4953333;28;20202;-81
2023/11/20 16:14:32;;;;;;;11.60;10.90;;;9.60;99.90;;;;;;4974407;28;20213;-79
2023/11/20 16:16:59;;;;;;;11.50;10.80;;;9.50;99.90;;;;;;4959599;28;20218;-80
2023/11/20 16:19:27;;;;;;;11.90;11.10;;;9.50;99.90;;;;;;4967859;28;20209;-79
2023/11/20 16:21:57;;;;;;;11.47;10.77;;;9.40;99.90;;;;;;4966977;28;20205;-79
2023/11/20 16:24:25;;;;;;;11.60;10.73;;;9.40;99.90;;;;;;4959996;28;20260;-80
2023/11/20 16:26:50;;;;;;;11.27;10.37;;;9.40;99.90;;;;;;4975307;28;20214;-80
2023/11/20 16:29:17;;;;;;;11.33;10.63;;;9.50;99.90;;;;;;4962234;28;20289;-79
2023/11/20 16:31:46;;;;;;;11.70;10.97;;;9.50;99.90;;;;;;4958597;28;20201;-79
2023/11/20 16:34:13;;;;;;;11.90;11.17;;;9.50;99.90;;;;;;4969162;28;20236;-81
2023/11/20 16:36:42;;;;;;;11.70;10.90;;;9.40;99.90;;;;;;4958494;28;20221;-80
2023/11/20 16:39:12;;;;;;;12.47;11.57;;;9.40;99.90;;;;;;4960357;28;20300;-81
2023/11/20 16:41:39;;;;;;;11.40;10.60;;;9.40;99.90;;;;;;4969339;28;20194;-77
2023/11/20 16:44:08;;;;;;;11.90;11.10;;;9.40;99.90;;;;;;4959108;28;20209;-77
2023/11/20 16:46:35;;;;;;;12.10;11.30;;;9.30;99.90;;;;;;4976578;28;20602;-80
2023/11/20 16:49:02;;;;;;;12.63;11.93;;;9.20;99.90;;;;;;4958945;28;20202;-80
2023/11/20 16:51:29;;;;;;;13.90;12.77;;;9.10;99.90;;;;;;4960591;28;20210;-83
2023/11/20 16:53:57;;;;;;;13.23;12.43;;;9.00;99.90;;;;;;4975210;28;20636;-77
2023/11/20 16:56:32;;;;;;;14.13;13.10;;;8.90;99.90;;;;;;4977083;28;20205;-77
2023/11/20 16:58:59;;;;;;;13.70;12.80;;;8.80;99.90;;;;;;4956179;28;20197;-77
2023/11/20 17:01:26;;;;;;;12.70;11.93;;;8.80;99.90;;;;;;4957471;28;20685;-78
2023/11/20 17:03:53;;;;;;;13.17;12.37;;;8.70;99.90;;;;;;4955697;28;20272;-76
2023/11/20 17:06:21;;;;;;;12.43;11.70;;;8.60;99.90;;;;;;4957406;28;20570;-77
2023/11/20 17:08:48;;;;;;;12.73;11.93;;;8.50;99.90;;;;;;4977396;28;20612;-77
2023/11/20 17:11:16;;;;;;;13.30;12.50;;;8.50;99.90;;;;;;4957165;28;20215;-77
2023/11/20 17:13:43;;;;;;;13.13;12.33;;;8.50;99.90;;;;;;4974657;28;20202;-76
2023/11/20 17:16:12;;;;;;;13.40;12.50;;;8.40;99.90;;;;;;4957630;28;20225;-77
2023/11/20 17:18:40;;;;;;;12.97;12.07;;;8.50;99.90;;;;;;4971736;28;20241;-77